sensor_id;sensor_type;location;lat;lon;timestamp;P1;durP1;ratioP1;P2;durP2;ratioP2
62580;SDS011;48640;48.770;9.148;2023-03-31T00:02:20;5.57;;;1.75;;
62580;SDS011;48640;48.770;9.148;2023-03-31T00:04:47;5.60;;;1.50;;
62580;SDS011;48640;48.770;9.148;2023-03-31T00:07:17;5.43;;;1.67;;
62580;SDS011;48640;48.770;9.148;2023-03-31T00:09:46;5.53;;;1.80;;
62580;SDS011;48640;48.770;9.148;2023-03-31T00:12:13;6.25;;;2.05;;
62580;SDS011;48640;48.770;9.148;2023-03-31T00:14:41;5.13;;;2.40;;
62580;SDS011;48640;48.770;9.148;2023-03-31T00:17:10;5.38;;;1.80;;
62580;SDS011;48640;48.770;9.148;2023-03-31T00:19:37;6.35;;;1.55;;
62580;SDS011;48640;48.770;9.148;2023-03-31T00:22:06;6.78;;;1.60;;
62580;SDS011;48640;48.770;9.148;2023-03-31T00:24:33;7.40;;;2.08;;
62580;SDS011;48640;48.770;9.148;2023-03-31T00:27:01;5.32;;;1.60;;
62580;SDS011;48640;48.770;9.148;2023-03-31T00:29:29;5.53;;;1.90;;
62580;SDS011;48640;48.770;9.148;2023-03-31T00:31:57;5.97;;;2.17;;
62580;SDS011;48640;48.770;9.148;2023-03-31T00:34:26;5.28;;;1.45;;
62580;SDS011;48640;48.770;9.148;2023-03-31T00:36:54;6.85;;;1.77;;
62580;SDS011;48640;48.770;9.148;2023-03-31T00:39:27;6.82;;;1.90;;
62580;SDS011;48640;48.770;9.148;2023-03-31T00:41:56;5.90;;;1.75;;
62580;SDS011;48640;48.770;9.148;2023-03-31T00:44:23;4.40;;;1.63;;
62580;SDS011;48640;48.770;9.148;2023-03-31T00:46:51;6.80;;;2.30;;
62580;SDS011;48640;48.770;9.148;2023-03-31T00:49:23;7.38;;;1.90;;
62580;SDS011;48640;48.770;9.148;2023-03-31T00:51:56;6.82;;;1.80;;
62580;SDS011;48640;48.770;9.148;2023-03-31T00:54:29;5.72;;;1.88;;
62580;SDS011;48640;48.770;9.148;2023-03-31T00:56:57;5.38;;;2.10;;
62580;SDS011;48640;48.770;9.148;2023-03-31T00:59:28;5.82;;;1.95;;
62580;SDS011;48640;48.770;9.148;2023-03-31T01:01:57;9.15;;;2.50;;
62580;SDS011;48640;48.770;9.148;2023-03-31T01:04:28;5.78;;;1.60;;
62580;SDS011;48640;48.770;9.148;2023-03-31T01:06:59;6.75;;;1.75;;
62580;SDS011;48640;48.770;9.148;2023-03-31T01:09:33;4.82;;;1.70;;
62580;SDS011;48640;48.770;9.148;2023-03-31T01:12:02;7.95;;;2.38;;
62580;SDS011;48640;48.770;9.148;2023-03-31T01:14:33;6.13;;;2.10;;
62580;SDS011;48640;48.770;9.148;2023-03-31T01:17:00;7.55;;;2.58;;
62580;SDS011;48640;48.770;9.148;2023-03-31T01:19:37;5.45;;;2.40;;
62580;SDS011;48640;48.770;9.148;2023-03-31T01:22:21;8.43;;;2.40;;
62580;SDS011;48640;48.770;9.148;2023-03-31T01:28:25;7.80;;;1.95;;
62580;SDS011;48640;48.770;9.148;2023-03-31T01:37:01;8.38;;;1.98;;
62580;SDS011;48640;48.770;9.148;2023-03-31T01:40:09;9.60;;;2.45;;
62580;SDS011;48640;48.770;9.148;2023-03-31T01:42:51;5.05;;;1.80;;
62580;SDS011;48640;48.770;9.148;2023-03-31T01:45:25;5.30;;;1.80;;
62580;SDS011;48640;48.770;9.148;2023-03-31T01:48:00;6.25;;;1.45;;
62580;SDS011;48640;48.770;9.148;2023-03-31T01:50:32;3.67;;;1.77;;
62580;SDS011;48640;48.770;9.148;2023-03-31T01:53:04;8.60;;;1.95;;
62580;SDS011;48640;48.770;9.148;2023-03-31T01:55:43;3.58;;;1.60;;
62580;SDS011;48640;48.770;9.148;2023-03-31T01:58:15;11.02;;;2.60;;
62580;SDS011;48640;48.770;9.148;2023-03-31T02:00:46;7.82;;;2.30;;
62580;SDS011;48640;48.770;9.148;2023-03-31T02:03:21;5.75;;;1.88;;
62580;SDS011;48640;48.770;9.148;2023-03-31T02:05:54;7.05;;;1.80;;
62580;SDS011;48640;48.770;9.148;2023-03-31T02:08:23;5.07;;;1.55;;
62580;SDS011;48640;48.770;9.148;2023-03-31T02:10:56;5.68;;;1.70;;
62580;SDS011;48640;48.770;9.148;2023-03-31T02:13:25;8.13;;;1.55;;
62580;SDS011;48640;48.770;9.148;2023-03-31T02:15:55;6.93;;;1.92;;
62580;SDS011;48640;48.770;9.148;2023-03-31T02:18:26;6.07;;;1.63;;
62580;SDS011;48640;48.770;9.148;2023-03-31T02:20:57;6.20;;;2.00;;
62580;SDS011;48640;48.770;9.148;2023-03-31T02:23:27;7.45;;;2.33;;
62580;SDS011;48640;48.770;9.148;2023-03-31T02:25:58;6.13;;;1.38;;
62580;SDS011;48640;48.770;9.148;2023-03-31T02:28:28;5.78;;;1.65;;
62580;SDS011;48640;48.770;9.148;2023-03-31T02:30:59;8.98;;;2.20;;
62580;SDS011;48640;48.770;9.148;2023-03-31T02:33:34;6.75;;;2.47;;
62580;SDS011;48640;48.770;9.148;2023-03-31T02:36:01;6.22;;;2.20;;
62580;SDS011;48640;48.770;9.148;2023-03-31T02:38:29;4.47;;;1.80;;
62580;SDS011;48640;48.770;9.148;2023-03-31T02:41:01;9.45;;;2.10;;
62580;SDS011;48640;48.770;9.148;2023-03-31T02:43:28;7.10;;;2.08;;
62580;SDS011;48640;48.770;9.148;2023-03-31T02:45:55;7.20;;;1.90;;
62580;SDS011;48640;48.770;9.148;2023-03-31T02:48:22;7.30;;;2.08;;
62580;SDS011;48640;48.770;9.148;2023-03-31T02:51:00;5.32;;;1.83;;
62580;SDS011;48640;48.770;9.148;2023-03-31T02:53:47;7.40;;;2.38;;
62580;SDS011;48640;48.770;9.148;2023-03-31T02:56:36;4.85;;;2.10;;
62580;SDS011;48640;48.770;9.148;2023-03-31T02:59:23;6.10;;;1.85;;
62580;SDS011;48640;48.770;9.148;2023-03-31T03:02:05;5.85;;;2.38;;
62580;SDS011;48640;48.770;9.148;2023-03-31T03:04:41;6.72;;;2.20;;
62580;SDS011;48640;48.770;9.148;2023-03-31T03:07:23;7.35;;;2.00;;
62580;SDS011;48640;48.770;9.148;2023-03-31T03:09:58;10.25;;;1.85;;
62580;SDS011;48640;48.770;9.148;2023-03-31T03:12:31;9.90;;;2.65;;
62580;SDS011;48640;48.770;9.148;2023-03-31T03:15:04;4.72;;;1.95;;
62580;SDS011;48640;48.770;9.148;2023-03-31T03:17:35;6.63;;;2.80;;
62580;SDS011;48640;48.770;9.148;2023-03-31T03:20:04;10.93;;;2.40;;
62580;SDS011;48640;48.770;9.148;2023-03-31T03:22:33;4.85;;;1.98;;
62580;SDS011;48640;48.770;9.148;2023-03-31T03:25:01;5.80;;;2.08;;
62580;SDS011;48640;48.770;9.148;2023-03-31T03:27:29;7.78;;;2.35;;
62580;SDS011;48640;48.770;9.148;2023-03-31T03:30:04;6.72;;;2.47;;
62580;SDS011;48640;48.770;9.148;2023-03-31T03:32:33;4.15;;;1.75;;
62580;SDS011;48640;48.770;9.148;2023-03-31T03:35:00;7.57;;;2.20;;
62580;SDS011;48640;48.770;9.148;2023-03-31T03:37:28;7.47;;;2.47;;
62580;SDS011;48640;48.770;9.148;2023-03-31T03:39:55;7.88;;;2.15;;
62580;SDS011;48640;48.770;9.148;2023-03-31T03:42:22;5.95;;;2.38;;
62580;SDS011;48640;48.770;9.148;2023-03-31T03:44:50;8.48;;;2.20;;
62580;SDS011;48640;48.770;9.148;2023-03-31T03:47:17;4.65;;;1.80;;
62580;SDS011;48640;48.770;9.148;2023-03-31T03:49:44;4.28;;;2.00;;
62580;SDS011;48640;48.770;9.148;2023-03-31T03:52:12;9.15;;;2.40;;
62580;SDS011;48640;48.770;9.148;2023-03-31T03:54:39;8.93;;;2.50;;
62580;SDS011;48640;48.770;9.148;2023-03-31T03:57:06;5.95;;;2.25;;
62580;SDS011;48640;48.770;9.148;2023-03-31T03:59:33;5.30;;;2.63;;
62580;SDS011;48640;48.770;9.148;2023-03-31T04:02:01;5.78;;;2.28;;
62580;SDS011;48640;48.770;9.148;2023-03-31T04:04:27;5.72;;;2.13;;
62580;SDS011;48640;48.770;9.148;2023-03-31T04:06:54;6.38;;;2.53;;
62580;SDS011;48640;48.770;9.148;2023-03-31T04:09:21;6.65;;;2.42;;
62580;SDS011;48640;48.770;9.148;2023-03-31T04:11:48;10.07;;;2.25;;
62580;SDS011;48640;48.770;9.148;2023-03-31T04:14:15;4.60;;;1.92;;
62580;SDS011;48640;48.770;9.148;2023-03-31T04:16:42;7.28;;;2.33;;
62580;SDS011;48640;48.770;9.148;2023-03-31T04:19:12;5.82;;;2.35;;
62580;SDS011;48640;48.770;9.148;2023-03-31T04:21:41;7.07;;;2.47;;
62580;SDS011;48640;48.770;9.148;2023-03-31T04:24:09;6.95;;;2.28;;
62580;SDS011;48640;48.770;9.148;2023-03-31T04:26:40;7.32;;;3.05;;
62580;SDS011;48640;48.770;9.148;2023-03-31T04:29:08;5.97;;;2.50;;
62580;SDS011;48640;48.770;9.148;2023-03-31T04:31:36;7.78;;;3.17;;
62580;SDS011;48640;48.770;9.148;2023-03-31T04:34:06;7.95;;;2.92;;
62580;SDS011;48640;48.770;9.148;2023-03-31T04:36:38;8.95;;;2.92;;
62580;SDS011;48640;48.770;9.148;2023-03-31T04:39:11;6.20;;;2.90;;
62580;SDS011;48640;48.770;9.148;2023-03-31T04:41:38;6.72;;;2.70;;
62580;SDS011;48640;48.770;9.148;2023-03-31T04:44:05;7.88;;;2.50;;
62580;SDS011;48640;48.770;9.148;2023-03-31T04:46:32;6.35;;;2.47;;
62580;SDS011;48640;48.770;9.148;2023-03-31T04:49:00;5.43;;;2.70;;
62580;SDS011;48640;48.770;9.148;2023-03-31T04:51:27;6.90;;;2.55;;
62580;SDS011;48640;48.770;9.148;2023-03-31T04:53:55;7.25;;;2.90;;
62580;SDS011;48640;48.770;9.148;2023-03-31T04:56:22;7.53;;;2.92;;
62580;SDS011;48640;48.770;9.148;2023-03-31T04:58:49;8.35;;;2.78;;
62580;SDS011;48640;48.770;9.148;2023-03-31T05:01:16;5.75;;;3.00;;
62580;SDS011;48640;48.770;9.148;2023-03-31T05:03:43;8.23;;;2.53;;
62580;SDS011;48640;48.770;9.148;2023-03-31T05:06:11;9.15;;;3.83;;
62580;SDS011;48640;48.770;9.148;2023-03-31T05:08:38;7.65;;;2.65;;
62580;SDS011;48640;48.770;9.148;2023-03-31T05:11:06;8.55;;;3.40;;
62580;SDS011;48640;48.770;9.148;2023-03-31T05:13:33;5.90;;;2.80;;
62580;SDS011;48640;48.770;9.148;2023-03-31T05:16:04;5.97;;;2.70;;
62580;SDS011;48640;48.770;9.148;2023-03-31T05:18:32;9.50;;;4.15;;
62580;SDS011;48640;48.770;9.148;2023-03-31T05:21:06;7.80;;;3.55;;
62580;SDS011;48640;48.770;9.148;2023-03-31T05:23:35;7.90;;;3.30;;
62580;SDS011;48640;48.770;9.148;2023-03-31T05:26:01;8.82;;;3.65;;
62580;SDS011;48640;48.770;9.148;2023-03-31T05:28:30;5.95;;;2.63;;
62580;SDS011;48640;48.770;9.148;2023-03-31T05:30:57;8.02;;;2.97;;
62580;SDS011;48640;48.770;9.148;2023-03-31T05:33:25;9.70;;;3.72;;
62580;SDS011;48640;48.770;9.148;2023-03-31T05:35:52;6.55;;;2.83;;
62580;SDS011;48640;48.770;9.148;2023-03-31T05:38:19;7.90;;;3.35;;
62580;SDS011;48640;48.770;9.148;2023-03-31T05:40:46;11.13;;;3.97;;
62580;SDS011;48640;48.770;9.148;2023-03-31T05:43:14;13.63;;;4.35;;
62580;SDS011;48640;48.770;9.148;2023-03-31T05:45:43;7.95;;;3.38;;
62580;SDS011;48640;48.770;9.148;2023-03-31T05:48:09;10.75;;;4.15;;
62580;SDS011;48640;48.770;9.148;2023-03-31T05:50:36;11.82;;;4.45;;
62580;SDS011;48640;48.770;9.148;2023-03-31T05:53:03;11.15;;;4.22;;
62580;SDS011;48640;48.770;9.148;2023-03-31T05:55:30;6.75;;;3.40;;
62580;SDS011;48640;48.770;9.148;2023-03-31T05:57:57;10.00;;;4.13;;
62580;SDS011;48640;48.770;9.148;2023-03-31T06:00:24;11.13;;;4.78;;
62580;SDS011;48640;48.770;9.148;2023-03-31T06:02:53;8.25;;;3.60;;
62580;SDS011;48640;48.770;9.148;2023-03-31T06:05:20;9.93;;;4.07;;
62580;SDS011;48640;48.770;9.148;2023-03-31T06:07:50;9.20;;;3.70;;
62580;SDS011;48640;48.770;9.148;2023-03-31T06:10:17;7.05;;;3.90;;
62580;SDS011;48640;48.770;9.148;2023-03-31T06:12:44;9.93;;;4.20;;
62580;SDS011;48640;48.770;9.148;2023-03-31T06:15:11;10.20;;;4.70;;
62580;SDS011;48640;48.770;9.148;2023-03-31T06:17:38;8.15;;;4.38;;
62580;SDS011;48640;48.770;9.148;2023-03-31T06:20:06;10.25;;;4.90;;
62580;SDS011;48640;48.770;9.148;2023-03-31T06:22:34;13.40;;;5.63;;
62580;SDS011;48640;48.770;9.148;2023-03-31T06:25:00;9.80;;;4.13;;
62580;SDS011;48640;48.770;9.148;2023-03-31T06:27:27;10.23;;;3.75;;
62580;SDS011;48640;48.770;9.148;2023-03-31T06:29:54;10.10;;;4.68;;
62580;SDS011;48640;48.770;9.148;2023-03-31T06:32:21;9.88;;;4.45;;
62580;SDS011;48640;48.770;9.148;2023-03-31T06:34:48;10.27;;;4.57;;
62580;SDS011;48640;48.770;9.148;2023-03-31T06:37:16;7.75;;;3.83;;
62580;SDS011;48640;48.770;9.148;2023-03-31T06:39:43;10.85;;;5.13;;
62580;SDS011;48640;48.770;9.148;2023-03-31T06:42:10;10.88;;;4.55;;
62580;SDS011;48640;48.770;9.148;2023-03-31T06:44:36;9.60;;;4.43;;
62580;SDS011;48640;48.770;9.148;2023-03-31T06:47:03;9.30;;;3.67;;
62580;SDS011;48640;48.770;9.148;2023-03-31T06:49:30;11.05;;;4.53;;
62580;SDS011;48640;48.770;9.148;2023-03-31T06:51:57;8.18;;;3.88;;
62580;SDS011;48640;48.770;9.148;2023-03-31T06:54:25;8.10;;;4.25;;
62580;SDS011;48640;48.770;9.148;2023-03-31T06:56:52;11.85;;;4.35;;
62580;SDS011;48640;48.770;9.148;2023-03-31T06:59:19;8.88;;;3.72;;
62580;SDS011;48640;48.770;9.148;2023-03-31T07:01:45;9.18;;;4.43;;
62580;SDS011;48640;48.770;9.148;2023-03-31T07:04:14;11.93;;;5.18;;
62580;SDS011;48640;48.770;9.148;2023-03-31T07:06:41;10.15;;;5.22;;
62580;SDS011;48640;48.770;9.148;2023-03-31T07:09:08;8.82;;;4.47;;
62580;SDS011;48640;48.770;9.148;2023-03-31T07:11:40;9.52;;;5.30;;
62580;SDS011;48640;48.770;9.148;2023-03-31T07:14:07;7.13;;;3.72;;
62580;SDS011;48640;48.770;9.148;2023-03-31T07:16:34;8.18;;;3.85;;
62580;SDS011;48640;48.770;9.148;2023-03-31T07:19:01;11.65;;;3.40;;
62580;SDS011;48640;48.770;9.148;2023-03-31T07:21:30;6.82;;;3.30;;
62580;SDS011;48640;48.770;9.148;2023-03-31T07:23:57;6.63;;;3.20;;
62580;SDS011;48640;48.770;9.148;2023-03-31T07:26:23;6.68;;;2.92;;
62580;SDS011;48640;48.770;9.148;2023-03-31T07:28:52;6.25;;;3.05;;
62580;SDS011;48640;48.770;9.148;2023-03-31T07:33:48;6.55;;;2.25;;
62580;SDS011;48640;48.770;9.148;2023-03-31T07:36:15;5.25;;;2.67;;
62580;SDS011;48640;48.770;9.148;2023-03-31T07:38:43;5.60;;;2.50;;
62580;SDS011;48640;48.770;9.148;2023-03-31T07:41:13;4.53;;;2.10;;
62580;SDS011;48640;48.770;9.148;2023-03-31T07:43:41;3.33;;;1.50;;
62580;SDS011;48640;48.770;9.148;2023-03-31T07:46:14;6.38;;;1.92;;
62580;SDS011;48640;48.770;9.148;2023-03-31T07:48:42;3.30;;;1.40;;
62580;SDS011;48640;48.770;9.148;2023-03-31T07:51:10;5.45;;;2.05;;
62580;SDS011;48640;48.770;9.148;2023-03-31T07:53:37;5.35;;;1.60;;
62580;SDS011;48640;48.770;9.148;2023-03-31T07:56:04;11.10;;;3.17;;
62580;SDS011;48640;48.770;9.148;2023-03-31T07:58:31;3.63;;;1.30;;
62580;SDS011;48640;48.770;9.148;2023-03-31T08:00:58;3.33;;;1.30;;
62580;SDS011;48640;48.770;9.148;2023-03-31T08:03:27;3.85;;;1.45;;
62580;SDS011;48640;48.770;9.148;2023-03-31T08:05:56;4.40;;;1.30;;
62580;SDS011;48640;48.770;9.148;2023-03-31T08:08:23;2.97;;;1.70;;
62580;SDS011;48640;48.770;9.148;2023-03-31T08:10:50;1.65;;;0.93;;
62580;SDS011;48640;48.770;9.148;2023-03-31T08:13:17;2.50;;;1.13;;
62580;SDS011;48640;48.770;9.148;2023-03-31T08:15:44;4.68;;;1.35;;
62580;SDS011;48640;48.770;9.148;2023-03-31T08:18:11;3.83;;;1.17;;
62580;SDS011;48640;48.770;9.148;2023-03-31T08:20:39;3.28;;;0.90;;
62580;SDS011;48640;48.770;9.148;2023-03-31T08:23:06;1.85;;;0.75;;
62580;SDS011;48640;48.770;9.148;2023-03-31T08:25:35;4.25;;;1.50;;
62580;SDS011;48640;48.770;9.148;2023-03-31T08:28:02;2.53;;;0.98;;
62580;SDS011;48640;48.770;9.148;2023-03-31T08:30:30;2.97;;;1.10;;
62580;SDS011;48640;48.770;9.148;2023-03-31T08:32:57;1.58;;;0.80;;
62580;SDS011;48640;48.770;9.148;2023-03-31T08:35:24;2.28;;;0.80;;
62580;SDS011;48640;48.770;9.148;2023-03-31T08:37:52;2.17;;;1.08;;
62580;SDS011;48640;48.770;9.148;2023-03-31T08:40:20;2.28;;;1.13;;
62580;SDS011;48640;48.770;9.148;2023-03-31T08:42:49;2.67;;;0.90;;
62580;SDS011;48640;48.770;9.148;2023-03-31T08:45:19;2.85;;;0.80;;
62580;SDS011;48640;48.770;9.148;2023-03-31T08:47:49;4.40;;;1.23;;
62580;SDS011;48640;48.770;9.148;2023-03-31T08:50:20;2.08;;;0.75;;
62580;SDS011;48640;48.770;9.148;2023-03-31T08:53:02;2.13;;;0.93;;
62580;SDS011;48640;48.770;9.148;2023-03-31T08:55:34;2.30;;;0.80;;
62580;SDS011;48640;48.770;9.148;2023-03-31T08:58:12;2.65;;;0.90;;
62580;SDS011;48640;48.770;9.148;2023-03-31T09:00:45;3.40;;;0.82;;
62580;SDS011;48640;48.770;9.148;2023-03-31T09:03:17;2.85;;;0.80;;
62580;SDS011;48640;48.770;9.148;2023-03-31T09:05:53;2.60;;;1.17;;
62580;SDS011;48640;48.770;9.148;2023-03-31T09:08:34;2.53;;;0.80;;
62580;SDS011;48640;48.770;9.148;2023-03-31T09:11:07;3.00;;;1.08;;
62580;SDS011;48640;48.770;9.148;2023-03-31T09:13:51;2.13;;;0.80;;
62580;SDS011;48640;48.770;9.148;2023-03-31T09:16:36;4.30;;;1.10;;
62580;SDS011;48640;48.770;9.148;2023-03-31T09:19:10;2.20;;;1.00;;
62580;SDS011;48640;48.770;9.148;2023-03-31T09:21:41;4.38;;;1.45;;
62580;SDS011;48640;48.770;9.148;2023-03-31T09:24:12;4.40;;;1.10;;
62580;SDS011;48640;48.770;9.148;2023-03-31T09:26:44;7.35;;;1.00;;
62580;SDS011;48640;48.770;9.148;2023-03-31T09:29:15;3.03;;;1.05;;
62580;SDS011;48640;48.770;9.148;2023-03-31T09:31:44;4.45;;;1.30;;
62580;SDS011;48640;48.770;9.148;2023-03-31T09:34:13;4.28;;;1.83;;
62580;SDS011;48640;48.770;9.148;2023-03-31T09:36:41;3.70;;;1.30;;
62580;SDS011;48640;48.770;9.148;2023-03-31T09:39:12;4.47;;;1.83;;
62580;SDS011;48640;48.770;9.148;2023-03-31T09:41:41;4.03;;;1.00;;
62580;SDS011;48640;48.770;9.148;2023-03-31T09:44:18;4.80;;;2.20;;
62580;SDS011;48640;48.770;9.148;2023-03-31T09:46:49;3.58;;;1.10;;
62580;SDS011;48640;48.770;9.148;2023-03-31T09:49:18;3.33;;;1.20;;
62580;SDS011;48640;48.770;9.148;2023-03-31T09:51:47;5.07;;;1.30;;
62580;SDS011;48640;48.770;9.148;2023-03-31T09:54:21;4.03;;;1.77;;
62580;SDS011;48640;48.770;9.148;2023-03-31T09:56:53;4.82;;;1.20;;
62580;SDS011;48640;48.770;9.148;2023-03-31T09:59:21;4.70;;;1.20;;
62580;SDS011;48640;48.770;9.148;2023-03-31T10:01:50;4.07;;;1.35;;
62580;SDS011;48640;48.770;9.148;2023-03-31T10:04:20;3.85;;;1.20;;
62580;SDS011;48640;48.770;9.148;2023-03-31T10:06:49;3.60;;;1.40;;
62580;SDS011;48640;48.770;9.148;2023-03-31T10:09:17;2.70;;;0.95;;
62580;SDS011;48640;48.770;9.148;2023-03-31T10:14:26;3.20;;;1.15;;
62580;SDS011;48640;48.770;9.148;2023-03-31T10:17:04;4.50;;;1.23;;
62580;SDS011;48640;48.770;9.148;2023-03-31T10:19:32;4.63;;;1.58;;
62580;SDS011;48640;48.770;9.148;2023-03-31T10:22:01;3.37;;;1.50;;
62580;SDS011;48640;48.770;9.148;2023-03-31T10:24:37;7.10;;;1.38;;
62580;SDS011;48640;48.770;9.148;2023-03-31T10:27:12;8.70;;;3.50;;
62580;SDS011;48640;48.770;9.148;2023-03-31T10:29:45;7.05;;;2.70;;
62580;SDS011;48640;48.770;9.148;2023-03-31T10:32:15;6.22;;;3.80;;
62580;SDS011;48640;48.770;9.148;2023-03-31T10:34:47;6.50;;;2.38;;
62580;SDS011;48640;48.770;9.148;2023-03-31T10:37:15;6.05;;;1.40;;
62580;SDS011;48640;48.770;9.148;2023-03-31T10:39:46;4.78;;;1.55;;
62580;SDS011;48640;48.770;9.148;2023-03-31T10:42:22;5.88;;;1.77;;
62580;SDS011;48640;48.770;9.148;2023-03-31T10:44:51;3.25;;;1.50;;
62580;SDS011;48640;48.770;9.148;2023-03-31T10:47:37;3.85;;;1.88;;
62580;SDS011;48640;48.770;9.148;2023-03-31T10:50:08;4.30;;;2.22;;
62580;SDS011;48640;48.770;9.148;2023-03-31T10:52:42;4.85;;;1.38;;
62580;SDS011;48640;48.770;9.148;2023-03-31T10:55:11;4.13;;;1.70;;
62580;SDS011;48640;48.770;9.148;2023-03-31T10:57:42;3.75;;;0.88;;
62580;SDS011;48640;48.770;9.148;2023-03-31T11:00:15;4.68;;;1.80;;
62580;SDS011;48640;48.770;9.148;2023-03-31T11:03:05;4.73;;;1.30;;
62580;SDS011;48640;48.770;9.148;2023-03-31T11:05:43;8.43;;;2.58;;
62580;SDS011;48640;48.770;9.148;2023-03-31T11:08:19;4.53;;;1.25;;
62580;SDS011;48640;48.770;9.148;2023-03-31T11:11:06;3.75;;;1.17;;
62580;SDS011;48640;48.770;9.148;2023-03-31T11:13:50;5.90;;;1.60;;
62580;SDS011;48640;48.770;9.148;2023-03-31T11:16:25;7.05;;;1.38;;
62580;SDS011;48640;48.770;9.148;2023-03-31T11:19:04;5.95;;;1.60;;
62580;SDS011;48640;48.770;9.148;2023-03-31T11:21:46;6.97;;;2.30;;
62580;SDS011;48640;48.770;9.148;2023-03-31T11:24:25;5.80;;;1.23;;
62580;SDS011;48640;48.770;9.148;2023-03-31T11:27:00;4.65;;;1.88;;
62580;SDS011;48640;48.770;9.148;2023-03-31T11:29:35;2.30;;;0.90;;
62580;SDS011;48640;48.770;9.148;2023-03-31T11:32:15;3.40;;;0.70;;
62580;SDS011;48640;48.770;9.148;2023-03-31T11:35:03;2.55;;;0.73;;
62580;SDS011;48640;48.770;9.148;2023-03-31T11:37:51;2.80;;;0.70;;
62580;SDS011;48640;48.770;9.148;2023-03-31T11:40:35;2.58;;;0.73;;
62580;SDS011;48640;48.770;9.148;2023-03-31T11:43:13;3.83;;;0.70;;
62580;SDS011;48640;48.770;9.148;2023-03-31T11:45:48;1.77;;;0.52;;
62580;SDS011;48640;48.770;9.148;2023-03-31T11:48:20;2.92;;;0.68;;
62580;SDS011;48640;48.770;9.148;2023-03-31T11:50:51;1.70;;;0.47;;
62580;SDS011;48640;48.770;9.148;2023-03-31T11:53:22;1.92;;;0.52;;
62580;SDS011;48640;48.770;9.148;2023-03-31T11:55:52;3.47;;;1.30;;
62580;SDS011;48640;48.770;9.148;2023-03-31T11:58:22;2.72;;;0.68;;
62580;SDS011;48640;48.770;9.148;2023-03-31T12:00:56;1.67;;;0.70;;
62580;SDS011;48640;48.770;9.148;2023-03-31T12:03:32;1.65;;;0.38;;
62580;SDS011;48640;48.770;9.148;2023-03-31T12:06:04;2.35;;;0.60;;
62580;SDS011;48640;48.770;9.148;2023-03-31T12:08:42;1.63;;;0.40;;
62580;SDS011;48640;48.770;9.148;2023-03-31T12:11:17;3.58;;;0.60;;
62580;SDS011;48640;48.770;9.148;2023-03-31T12:13:52;1.30;;;0.50;;
62580;SDS011;48640;48.770;9.148;2023-03-31T12:16:25;1.38;;;0.47;;
62580;SDS011;48640;48.770;9.148;2023-03-31T12:19:01;0.73;;;0.38;;
62580;SDS011;48640;48.770;9.148;2023-03-31T12:21:34;1.73;;;0.70;;
62580;SDS011;48640;48.770;9.148;2023-03-31T12:24:04;4.72;;;0.77;;
62580;SDS011;48640;48.770;9.148;2023-03-31T12:26:33;3.05;;;0.50;;
62580;SDS011;48640;48.770;9.148;2023-03-31T12:29:05;1.92;;;0.60;;
62580;SDS011;48640;48.770;9.148;2023-03-31T12:31:48;2.42;;;0.65;;
62580;SDS011;48640;48.770;9.148;2023-03-31T12:34:18;2.40;;;0.82;;
62580;SDS011;48640;48.770;9.148;2023-03-31T12:36:52;1.27;;;0.50;;
62580;SDS011;48640;48.770;9.148;2023-03-31T12:39:32;1.95;;;0.50;;
62580;SDS011;48640;48.770;9.148;2023-03-31T12:45:14;1.67;;;0.82;;
62580;SDS011;48640;48.770;9.148;2023-03-31T12:47:54;2.85;;;0.52;;
62580;SDS011;48640;48.770;9.148;2023-03-31T12:50:34;2.08;;;0.73;;
62580;SDS011;48640;48.770;9.148;2023-03-31T12:53:17;2.72;;;0.55;;
62580;SDS011;48640;48.770;9.148;2023-03-31T12:55:50;1.13;;;0.57;;
62580;SDS011;48640;48.770;9.148;2023-03-31T12:58:34;1.98;;;0.60;;
62580;SDS011;48640;48.770;9.148;2023-03-31T13:01:14;1.83;;;0.65;;
62580;SDS011;48640;48.770;9.148;2023-03-31T13:03:48;3.05;;;0.90;;
62580;SDS011;48640;48.770;9.148;2023-03-31T13:12:11;4.43;;;1.20;;
62580;SDS011;48640;48.770;9.148;2023-03-31T13:14:41;5.15;;;1.15;;
62580;SDS011;48640;48.770;9.148;2023-03-31T13:17:11;4.07;;;1.45;;
62580;SDS011;48640;48.770;9.148;2023-03-31T13:19:47;8.63;;;1.67;;
62580;SDS011;48640;48.770;9.148;2023-03-31T13:22:31;8.60;;;2.33;;
62580;SDS011;48640;48.770;9.148;2023-03-31T13:28:10;5.07;;;1.73;;
62580;SDS011;48640;48.770;9.148;2023-03-31T13:30:44;2.47;;;0.80;;
62580;SDS011;48640;48.770;9.148;2023-03-31T13:33:13;3.35;;;1.20;;
62580;SDS011;48640;48.770;9.148;2023-03-31T13:35:44;1.95;;;0.50;;
62580;SDS011;48640;48.770;9.148;2023-03-31T13:38:14;3.33;;;0.50;;
62580;SDS011;48640;48.770;9.148;2023-03-31T13:40:54;2.63;;;0.47;;
62580;SDS011;48640;48.770;9.148;2023-03-31T13:43:39;2.17;;;0.43;;
62580;SDS011;48640;48.770;9.148;2023-03-31T13:46:38;2.28;;;0.50;;
62580;SDS011;48640;48.770;9.148;2023-03-31T13:52:17;1.25;;;0.50;;
62580;SDS011;48640;48.770;9.148;2023-03-31T13:58:15;0.68;;;0.35;;
62580;SDS011;48640;48.770;9.148;2023-03-31T14:01:01;2.13;;;0.30;;
62580;SDS011;48640;48.770;9.148;2023-03-31T14:03:47;1.05;;;0.38;;
62580;SDS011;48640;48.770;9.148;2023-03-31T14:06:24;0.93;;;0.40;;
62580;SDS011;48640;48.770;9.148;2023-03-31T14:09:00;0.93;;;0.30;;
62580;SDS011;48640;48.770;9.148;2023-03-31T14:11:30;0.77;;;0.38;;
62580;SDS011;48640;48.770;9.148;2023-03-31T14:13:58;0.50;;;0.35;;
62580;SDS011;48640;48.770;9.148;2023-03-31T14:16:27;3.50;;;0.68;;
62580;SDS011;48640;48.770;9.148;2023-03-31T14:18:59;6.10;;;0.70;;
62580;SDS011;48640;48.770;9.148;2023-03-31T14:21:44;3.22;;;0.47;;
62580;SDS011;48640;48.770;9.148;2023-03-31T14:24:19;1.15;;;0.50;;
62580;SDS011;48640;48.770;9.148;2023-03-31T14:26:53;2.17;;;0.90;;
62580;SDS011;48640;48.770;9.148;2023-03-31T14:29:28;1.40;;;0.50;;
62580;SDS011;48640;48.770;9.148;2023-03-31T14:32:06;3.15;;;0.55;;
62580;SDS011;48640;48.770;9.148;2023-03-31T14:34:44;3.78;;;0.50;;
62580;SDS011;48640;48.770;9.148;2023-03-31T14:37:18;2.40;;;0.60;;
62580;SDS011;48640;48.770;9.148;2023-03-31T14:39:49;0.75;;;0.30;;
62580;SDS011;48640;48.770;9.148;2023-03-31T14:42:20;5.20;;;0.57;;
62580;SDS011;48640;48.770;9.148;2023-03-31T14:44:53;1.60;;;0.60;;
62580;SDS011;48640;48.770;9.148;2023-03-31T14:47:24;1.42;;;0.50;;
62580;SDS011;48640;48.770;9.148;2023-03-31T14:49:59;1.13;;;0.50;;
62580;SDS011;48640;48.770;9.148;2023-03-31T14:52:28;3.72;;;0.60;;
62580;SDS011;48640;48.770;9.148;2023-03-31T14:54:57;1.70;;;0.73;;
62580;SDS011;48640;48.770;9.148;2023-03-31T14:57:26;4.23;;;0.60;;
62580;SDS011;48640;48.770;9.148;2023-03-31T14:59:56;2.03;;;0.80;;
62580;SDS011;48640;48.770;9.148;2023-03-31T15:02:28;3.60;;;0.98;;
62580;SDS011;48640;48.770;9.148;2023-03-31T15:04:57;0.82;;;0.60;;
62580;SDS011;48640;48.770;9.148;2023-03-31T15:07:26;2.63;;;0.75;;
62580;SDS011;48640;48.770;9.148;2023-03-31T15:09:53;1.88;;;0.63;;
62580;SDS011;48640;48.770;9.148;2023-03-31T15:12:22;1.85;;;0.60;;
62580;SDS011;48640;48.770;9.148;2023-03-31T15:14:49;2.22;;;0.80;;
62580;SDS011;48640;48.770;9.148;2023-03-31T15:17:20;1.10;;;0.57;;
62580;SDS011;48640;48.770;9.148;2023-03-31T15:19:52;3.97;;;1.02;;
62580;SDS011;48640;48.770;9.148;2023-03-31T15:22:21;2.78;;;0.60;;
62580;SDS011;48640;48.770;9.148;2023-03-31T15:24:50;2.20;;;0.60;;
62580;SDS011;48640;48.770;9.148;2023-03-31T15:27:18;2.80;;;0.93;;
62580;SDS011;48640;48.770;9.148;2023-03-31T15:29:54;4.97;;;1.38;;
62580;SDS011;48640;48.770;9.148;2023-03-31T15:32:24;4.70;;;0.70;;
62580;SDS011;48640;48.770;9.148;2023-03-31T15:34:52;2.72;;;0.70;;
62580;SDS011;48640;48.770;9.148;2023-03-31T15:37:20;2.28;;;0.60;;
62580;SDS011;48640;48.770;9.148;2023-03-31T15:39:48;2.58;;;0.60;;
62580;SDS011;48640;48.770;9.148;2023-03-31T15:42:15;2.35;;;0.68;;
62580;SDS011;48640;48.770;9.148;2023-03-31T15:44:45;5.05;;;0.80;;
62580;SDS011;48640;48.770;9.148;2023-03-31T15:47:16;1.90;;;0.57;;